Time;durP1;ratioP1;P1;durP2;ratioP2;P2;SDS_P1;SDS_P2;PMS_P1;PMS_P2;Temp;Humidity;BMP_temperature;BMP_pressure;BME280_temperature;BME280_humidity;BME280_pressure;Samples;Min_cycle;Max_cycle;Signal;HPM_P1;HPM_P2
2023/07/20 00:05:26;;;;;;;12.63;4.50;;;;;;;-142.57;56.84;115900.28;6253595;23;20062;-84
2023/07/20 00:07:52;;;;;;;24.95;3.60;;;;;;;-142.57;56.34;115900.28;6222748;23;20004;-79
2023/07/20 00:10:17;;;;;;;24.08;3.95;;;;;;;-142.57;56.74;115900.28;6250183;23;20012;-80
2023/07/20 00:12:47;;;;;;;17.70;4.35;;;;;;;-142.57;57.57;115900.28;6222239;23;20011;-80
2023/07/20 00:15:13;;;;;;;18.98;3.53;;;;;;;-142.57;57.80;115900.28;6249885;23;20008;-82
2023/07/20 00:17:39;;;;;;;15.30;3.78;;;;;;;-142.57;57.34;115900.28;6248176;23;20004;-80
2023/07/20 00:20:06;;;;;;;20.40;4.00;;;;;;;-142.57;57.40;115900.28;6248074;23;20031;-80
2023/07/20 00:22:32;;;;;;;15.05;4.00;;;;;;;-142.57;57.33;115900.28;6248675;23;20079;-82
2023/07/20 00:24:57;;;;;;;17.48;3.58;;;;;;;-142.57;57.07;115900.28;6222289;23;20008;-83
2023/07/20 00:27:23;;;;;;;7.95;3.35;;;;;;;-142.57;56.24;115900.28;6222403;23;20015;-82
2023/07/20 00:29:48;;;;;;;22.38;3.65;;;;;;;-142.57;56.05;115900.28;6248297;23;20015;-82
2023/07/20 00:32:14;;;;;;;15.07;3.55;;;;;;;-142.57;54.80;115900.28;6249546;23;20008;-81
2023/07/20 00:34:39;;;;;;;11.55;3.60;;;;;;;-142.57;54.71;115900.28;6222173;23;20016;-81
2023/07/20 00:37:05;;;;;;;10.82;3.50;;;;;;;-142.57;55.17;115900.28;6248702;23;20352;-83
2023/07/20 00:39:30;;;;;;;11.07;3.45;;;;;;;-142.57;57.24;115900.28;6248125;23;20175;-82
2023/07/20 00:41:58;;;;;;;10.25;2.90;;;;;;;-142.57;58.87;115900.28;6248209;23;20107;-82
2023/07/20 00:44:23;;;;;;;8.18;2.97;;;;;;;-142.57;60.15;115900.28;6247091;23;20008;-83
2023/07/20 00:46:49;;;;;;;7.50;2.83;;;;;;;-142.57;63.16;115900.28;6248767;23;20015;-82
2023/07/20 00:49:16;;;;;;;13.93;2.70;;;;;;;-142.57;65.39;115900.28;6250151;23;20004;-84
2023/07/20 00:51:42;;;;;;;9.75;2.97;;;;;;;-142.57;70.16;115900.28;6224696;23;20034;-82
2023/07/20 00:54:08;;;;;;;7.55;3.03;;;;;;;-142.57;72.81;115900.28;6224393;23;20090;-83
2023/07/20 00:56:35;;;;;;;12.13;2.65;;;;;;;-142.57;74.72;115900.28;6222598;23;20358;-83
2023/07/20 00:59:01;;;;;;;8.88;2.83;;;;;;;-142.57;76.45;115900.28;6222397;23;20005;-83
2023/07/20 01:01:27;;;;;;;7.28;2.45;;;;;;;-142.57;77.33;115900.28;6249116;23;20000;-82
2023/07/20 01:03:52;;;;;;;8.15;2.60;;;;;;;-142.57;74.87;115900.28;6250823;23;20015;-81
2023/07/20 01:06:34;;;;;;;10.40;3.17;;;;;;;-142.57;75.39;115900.28;6221716;23;20012;-80
2023/07/20 01:09:14;;;;;;;9.77;2.63;;;;;;;-142.57;73.81;115900.28;6249430;23;20008;-83
2023/07/20 01:11:53;;;;;;;12.07;2.50;;;;;;;-142.57;72.97;115900.28;6222104;23;20012;-83
2023/07/20 01:14:20;;;;;;;7.50;2.65;;;;;;;-142.57;73.88;115900.28;6251711;23;20012;-79
2023/07/20 01:16:45;;;;;;;7.82;2.53;;;;;;;-142.57;74.58;115900.28;6229337;23;20084;-81
2023/07/20 01:19:14;;;;;;;14.63;2.92;;;;;;;-142.57;74.88;115900.28;6220488;23;20390;-83
2023/07/20 01:22:03;;;;;;;11.20;3.20;;;;;;;-142.57;75.57;115900.28;6220709;23;20081;-83
2023/07/20 01:24:51;;;;;;;8.80;2.72;;;;;;;-142.57;76.07;115900.28;6222073;23;20012;-80
2023/07/20 01:27:22;;;;;;;8.88;2.70;;;;;;;-142.57;75.33;115900.28;6248407;23;20043;-82
2023/07/20 01:30:29;;;;;;;13.40;3.35;;;;;;;-142.57;76.70;115900.28;6247680;23;20084;-81
2023/07/20 01:32:57;;;;;;;8.30;2.80;;;;;;;-142.57;78.19;115900.28;6125864;23;20020;-82
2023/07/20 01:35:29;;;;;;;9.18;3.08;;;;;;;-142.57;77.52;115900.28;6248311;23;20020;-81
2023/07/20 01:37:55;;;;;;;12.80;3.40;;;;;;;-142.57;78.32;115900.28;6195811;23;20103;-81
2023/07/20 01:40:25;;;;;;;7.15;3.40;;;;;;;-142.57;76.55;115900.28;6220441;23;20027;-81
2023/07/20 01:42:52;;;;;;;10.70;3.88;;;;;;;-142.57;76.74;115900.28;6220733;23;20398;-82
2023/07/20 01:45:18;;;;;;;7.47;3.72;;;;;;;-142.57;76.46;115900.28;6220648;23;20023;-81
2023/07/20 01:47:44;;;;;;;12.50;4.25;;;;;;;-142.57;77.27;115900.28;6220386;23;20004;-80
2023/07/20 01:50:09;;;;;;;11.40;4.18;;;;;;;-142.57;77.87;115900.28;6247177;23;20427;-81
2023/07/20 01:52:35;;;;;;;11.27;4.10;;;;;;;-142.57;77.99;115900.28;6247285;23;20019;-82
2023/07/20 01:55:01;;;;;;;12.50;4.32;;;;;;;-142.57;78.08;115900.28;6247424;23;20008;-83
2023/07/20 01:57:26;;;;;;;13.35;4.28;;;;;;;-142.57;78.98;115900.28;6220301;23;20016;-80
2023/07/20 01:59:52;;;;;;;11.27;4.65;;;;;;;-142.57;79.48;115900.28;6221374;23;20015;-84
2023/07/20 02:02:18;;;;;;;12.02;5.22;;;;;;;-142.57;82.64;115900.28;6196218;23;20012;-83
2023/07/20 02:04:44;;;;;;;13.27;5.45;;;;;;;-142.57;82.55;115900.28;6220940;23;20023;-80
2023/07/20 02:07:10;;;;;;;14.57;5.53;;;;;;;-142.57;84.30;115900.28;6220627;23;20004;-81
2023/07/20 02:09:35;;;;;;;9.93;4.38;;;;;;;-142.57;85.98;115900.28;6220564;23;20035;-82
2023/07/20 02:12:01;;;;;;;11.35;4.60;;;;;;;-142.57;86.49;115900.28;6221398;23;20026;-81
2023/07/20 02:14:26;;;;;;;13.85;5.30;;;;;;;-142.57;88.26;115900.28;6221779;23;20435;-83
2023/07/20 02:16:53;;;;;;;12.38;5.38;;;;;;;-142.57;88.12;115900.28;6220827;23;20008;-85
2023/07/20 02:19:20;;;;;;;13.63;5.03;;;;;;;-142.57;88.08;115900.28;6220667;23;20007;-83
2023/07/20 02:21:46;;;;;;;13.07;4.95;;;;;;;-142.57;88.59;115900.28;6247562;23;20059;-83
2023/07/20 02:24:13;;;;;;;11.95;5.15;;;;;;;-142.57;88.32;115900.28;6220361;23;20016;-82
2023/07/20 02:26:38;;;;;;;12.35;5.20;;;;;;;-142.57;88.70;115900.28;6247436;23;20080;-82
2023/07/20 02:29:07;;;;;;;12.15;4.90;;;;;;;-142.57;87.84;115900.28;6247893;23;20008;-80
2023/07/20 02:31:33;;;;;;;9.15;4.75;;;;;;;-142.57;87.99;115900.28;6247709;23;20012;-83
2023/07/20 02:33:59;;;;;;;15.10;4.88;;;;;;;-142.57;89.10;115900.28;6248287;23;20048;-83
2023/07/20 02:41:50;;;;;;;15.98;3.78;;;;;;;-142.57;88.69;115900.28;6217742;22;20075;-81
2023/07/20 02:44:15;;;;;;;13.48;4.03;;;;;;;-142.57;88.18;115900.28;6247399;23;20443;-84
2023/07/20 02:46:41;;;;;;;11.63;4.20;;;;;;;-142.57;88.07;115900.28;6220558;23;20035;-81
2023/07/20 02:49:07;;;;;;;9.27;3.85;;;;;;;-142.57;87.00;115900.28;6196051;23;20434;-82
2023/07/20 02:51:32;;;;;;;13.43;4.30;;;;;;;-142.57;87.20;115900.28;6220901;23;20036;-82
2023/07/20 02:54:01;;;;;;;12.50;4.82;;;;;;;-142.57;87.10;115900.28;6232430;23;19996;-82
2023/07/20 02:56:27;;;;;;;9.30;3.85;;;;;;;-142.57;86.92;115900.28;6256770;23;20078;-83
2023/07/20 02:58:53;;;;;;;10.75;3.90;;;;;;;-142.57;87.13;115900.28;6221988;23;20439;-82
2023/07/20 03:01:18;;;;;;;16.25;3.92;;;;;;;-142.57;87.02;115900.28;6221817;23;20016;-83
2023/07/20 03:03:47;;;;;;;17.25;3.67;;;;;;;-142.57;86.92;115900.28;6222614;23;20012;-83
2023/07/20 03:06:14;;;;;;;9.57;4.07;;;;;;;-142.57;86.49;115900.28;6197214;23;20004;-84
2023/07/20 03:08:48;;;;;;;13.90;3.67;;;;;;;-142.57;86.38;115900.28;6221559;23;20016;-82
2023/07/20 03:11:16;;;;;;;9.00;3.97;;;;;;;-142.57;85.79;115900.28;6248550;23;20047;-82
2023/07/20 03:13:43;;;;;;;11.70;3.80;;;;;;;-142.57;85.72;115900.28;6221615;23;20015;-82
2023/07/20 03:16:11;;;;;;;9.43;3.63;;;;;;;-142.57;86.18;115900.28;6222129;23;20397;-81
2023/07/20 03:18:38;;;;;;;9.55;3.72;;;;;;;-142.57;85.75;115900.28;6221832;23;20335;-83
2023/07/20 03:21:05;;;;;;;12.73;4.15;;;;;;;-142.57;86.10;115900.28;6196442;23;20000;-81
2023/07/20 03:23:30;;;;;;;10.90;3.75;;;;;;;-142.57;85.27;115900.28;6247916;23;20012;-81
2023/07/20 03:25:56;;;;;;;14.30;4.35;;;;;;;-142.57;84.75;115900.28;6249136;23;20430;-86
2023/07/20 03:28:22;;;;;;;18.77;4.50;;;;;;;-142.57;85.17;115900.28;6222351;23;20016;-82
2023/07/20 03:30:56;;;;;;;9.45;3.95;;;;;;;-142.57;85.26;115900.28;6248444;23;20034;-83
2023/07/20 03:33:29;;;;;;;16.15;3.75;;;;;;;-142.57;84.35;115900.28;6249962;23;20008;-81
2023/07/20 03:35:56;;;;;;;12.75;3.72;;;;;;;-142.57;83.55;115900.28;6220595;23;20098;-82
2023/07/20 03:38:23;;;;;;;18.02;3.97;;;;;;;-142.57;83.04;115900.28;6247916;23;20122;-82
2023/07/20 03:40:59;;;;;;;12.60;4.00;;;;;;;-142.57;82.99;115900.28;6220601;23;20316;-82
2023/07/20 03:43:27;;;;;;;13.07;3.78;;;;;;;-142.57;83.55;115900.28;6247361;23;20012;-81
2023/07/20 03:45:53;;;;;;;6.63;3.33;;;;;;;-142.57;83.71;115900.28;6221141;23;20479;-83
2023/07/20 03:48:21;;;;;;;11.65;3.83;;;;;;;-142.57;83.62;115900.28;6220729;23;20050;-83
2023/07/20 03:50:49;;;;;;;10.90;3.70;;;;;;;-142.57;84.32;115900.28;6246763;23;20434;-83
2023/07/20 03:53:16;;;;;;;8.00;3.70;;;;;;;-142.57;83.50;115900.28;6221274;23;20027;-83
2023/07/20 03:55:46;;;;;;;12.25;3.78;;;;;;;-142.57;83.33;115900.28;6248213;23;20012;-82
2023/07/20 03:58:13;;;;;;;17.25;3.72;;;;;;;-142.57;83.00;115900.28;6221700;23;20016;-89
2023/07/20 04:00:39;;;;;;;24.17;3.90;;;;;;;-142.57;82.84;115900.28;6222239;23;20012;-86
2023/07/20 04:03:05;;;;;;;17.23;3.65;;;;;;;-142.57;83.38;115900.28;6248201;23;20011;-89
2023/07/20 04:05:30;;;;;;;8.27;3.50;;;;;;;-142.57;83.07;115900.28;6221005;23;20015;-85
2023/07/20 04:07:56;;;;;;;11.07;3.50;;;;;;;-142.57;82.72;115900.28;6249076;23;20015;-88
2023/07/20 04:10:21;;;;;;;9.82;4.20;;;;;;;-142.57;82.01;115900.28;6221584;23;20023;-88
2023/07/20 04:12:51;;;;;;;12.27;4.03;;;;;;;-142.57;81.35;115900.28;6223640;23;20039;-89
2023/07/20 04:15:17;;;;;;;10.43;3.42;;;;;;;-142.57;80.74;115900.28;6248264;23;20005;-88
2023/07/20 04:17:42;;;;;;;12.13;3.65;;;;;;;-142.57;80.31;115900.28;6222630;23;20159;-89
2023/07/20 04:20:09;;;;;;;8.82;3.88;;;;;;;-142.57;79.32;115900.28;6249085;23;20012;-86
2023/07/20 04:22:35;;;;;;;11.95;3.97;;;;;;;-142.57;78.78;115900.28;6196139;23;20036;-88
2023/07/20 04:25:02;;;;;;;6.40;3.35;;;;;;;-142.57;78.97;115900.28;6198372;23;20020;-91
2023/07/20 04:27:28;;;;;;;10.43;3.70;;;;;;;-142.57;76.96;115900.28;6199201;23;20070;-87
2023/07/20 04:29:54;;;;;;;11.65;3.83;;;;;;;-142.57;77.15;115900.28;6221290;23;20057;-86
2023/07/20 04:32:20;;;;;;;14.05;3.75;;;;;;;-142.57;77.90;115900.28;6249208;23;20095;-89
2023/07/20 04:34:45;;;;;;;11.52;3.75;;;;;;;-142.57;78.08;115900.28;6223330;23;20432;-87
2023/07/20 04:37:11;;;;;;;10.65;3.72;;;;;;;-142.57;78.01;115900.28;6220983;23;20346;-87
2023/07/20 04:39:36;;;;;;;11.38;4.05;;;;;;;-142.57;77.97;115900.28;6247897;23;20004;-90
2023/07/20 04:42:07;;;;;;;16.40;4.30;;;;;;;-142.57;78.18;115900.28;6197144;23;20111;-89
2023/07/20 04:44:32;;;;;;;16.73;4.88;;;;;;;-142.57;78.20;115900.28;6220975;23;20031;-90
2023/07/20 04:46:59;;;;;;;18.95;4.85;;;;;;;-142.57;79.71;115900.28;6251355;23;20012;-89
2023/07/20 04:49:24;;;;;;;10.90;4.60;;;;;;;-142.57;79.88;115900.28;6223354;23;20016;-87
2023/07/20 04:51:51;;;;;;;12.25;4.20;;;;;;;-142.57;79.33;115900.28;6248167;23;20012;-88
2023/07/20 04:54:18;;;;;;;10.70;4.68;;;;;;;-142.57;78.96;115900.28;6219328;23;20012;-88
2023/07/20 04:56:44;;;;;;;15.25;4.72;;;;;;;-142.57;77.94;115900.28;6221167;23;20450;-89
2023/07/20 04:59:11;;;;;;;12.68;4.50;;;;;;;-142.57;78.38;115900.28;6221253;23;20012;-90
2023/07/20 05:01:37;;;;;;;14.40;4.80;;;;;;;-142.57;77.39;115900.28;6222308;23;20431;-90
2023/07/20 05:04:05;;;;;;;11.60;4.40;;;;;;;-142.57;77.09;115900.28;6224478;23;20000;-89
2023/07/20 05:06:31;;;;;;;14.82;4.13;;;;;;;-142.57;76.91;115900.28;6251162;23;20008;-90
2023/07/20 05:08:57;;;;;;;12.13;3.90;;;;;;;-142.57;76.20;115900.28;6204449;23;20046;-89
2023/07/20 05:11:23;;;;;;;13.85;3.83;;;;;;;-142.57;75.65;115900.28;6240497;23;20016;-88
2023/07/20 05:13:50;;;;;;;14.68;4.68;;;;;;;-142.57;74.07;115900.28;6264895;23;20039;-90
2023/07/20 05:16:17;;;;;;;12.05;4.35;;;;;;;-142.57;74.15;115900.28;6240549;23;20095;-92
2023/07/20 05:18:44;;;;;;;15.38;4.22;;;;;;;-142.57;73.64;115900.28;6222878;23;20012;-86
2023/07/20 05:21:10;;;;;;;12.80;3.85;;;;;;;-142.57;72.39;115900.28;6222323;23;20018;-89
2023/07/20 05:23:35;;;;;;;11.27;4.18;;;;;;;-142.57;72.72;115900.28;6223154;23;20036;-87
2023/07/20 05:26:01;;;;;;;25.92;5.00;;;;;;;-142.57;73.66;115900.28;6230523;22;19996;-87
2023/07/20 05:28:27;;;;;;;15.20;4.75;;;;;;;-142.57;73.91;115900.28;6221868;22;20048;-84
2023/07/20 05:30:53;;;;;;;23.00;4.68;;;;;;;-142.57;73.23;115900.28;6247638;22;20004;-87
2023/07/20 05:33:22;;;;;;;18.40;5.00;;;;;;;-142.57;72.33;115900.28;6273412;22;20008;-87
2023/07/20 05:35:51;;;;;;;19.00;4.78;;;;;;;-142.57;72.83;115900.28;6273274;22;20052;-87
2023/07/20 05:38:17;;;;;;;13.25;4.63;;;;;;;-142.57;72.64;115900.28;6248082;22;20047;-92
2023/07/20 05:40:47;;;;;;;30.20;4.85;;;;;;;-142.57;72.91;115900.28;6270885;22;20007;-88
2023/07/20 05:43:13;;;;;;;15.90;4.40;;;;;;;-142.57;73.96;115900.28;6247213;22;20007;-89
2023/07/20 05:45:45;;;;;;;18.98;4.18;;;;;;;-142.57;72.50;115900.28;6273496;22;20079;-87
2023/07/20 05:48:11;;;;;;;15.80;5.18;;;;;;;-142.57;69.23;115900.28;6269632;22;20024;-86
2023/07/20 05:50:46;;;;;;;18.98;5.50;;;;;;;-142.57;69.27;115900.28;6228205;23;20008;-89
2023/07/20 05:53:12;;;;;;;18.05;5.45;;;;;;;-142.57;68.32;115900.28;6264949;22;20016;-88
2023/07/20 05:55:39;;;;;;;31.65;5.03;;;;;;;-142.57;68.24;115900.28;6257601;23;20010;-88
2023/07/20 05:58:04;;;;;;;18.85;4.85;;;;;;;-142.57;67.83;115900.28;6232933;23;20008;-83
2023/07/20 06:00:30;;;;;;;19.92;4.93;;;;;;;-142.57;66.10;115900.28;6263929;23;20011;-84
2023/07/20 06:02:55;;;;;;;25.75;5.50;;;;;;;-142.57;64.33;115900.28;6230247;23;20004;-85
2023/07/20 06:05:23;;;;;;;24.17;5.18;;;;;;;-142.57;62.64;115900.28;6254193;23;20427;-85
2023/07/20 06:07:54;;;;;;;14.00;4.33;;;;;;;-142.57;61.98;115900.28;6226941;23;20446;-85
2023/07/20 06:10:20;;;;;;;12.95;5.40;;;;;;;-142.57;60.78;115900.28;6262713;23;19996;-84
2023/07/20 06:12:45;;;;;;;15.50;5.18;;;;;;;-142.57;59.05;115900.28;6248197;23;20008;-88
2023/07/20 06:15:28;;;;;;;11.45;4.70;;;;;;;-142.57;57.01;115900.28;6275490;22;20008;-88
2023/07/20 06:17:56;;;;;;;17.55;4.45;;;;;;;-142.57;56.70;115900.28;6275624;22;20015;-87
2023/07/20 06:20:22;;;;;;;19.48;5.72;;;;;;;-142.57;55.38;115900.28;6249968;22;20012;-85
2023/07/20 06:22:48;;;;;;;14.35;4.72;;;;;;;-142.57;51.46;115900.28;6275417;22;20023;-86
2023/07/20 06:25:13;;;;;;;12.23;4.53;;;;;;;-142.57;52.01;115900.28;6249514;22;20000;-83
2023/07/20 06:27:39;;;;;;;14.48;4.60;;;;;;;-142.57;49.21;115900.28;6262399;23;20004;-79
2023/07/20 06:30:05;;;;;;;13.50;4.57;;;;;;;-142.57;47.20;115900.28;6256308;23;20375;-81
2023/07/20 06:32:32;;;;;;;13.40;4.20;;;;;;;-142.57;48.72;115900.28;6221566;23;20437;-82
2023/07/20 06:35:00;;;;;;;15.00;4.65;;;;;;;-142.57;47.87;115900.28;6248331;23;20014;-84
2023/07/20 06:37:26;;;;;;;20.45;4.63;;;;;;;-142.57;48.04;115900.28;6196304;23;20028;-83
2023/07/20 06:39:52;;;;;;;22.60;5.60;;;;;;;-142.57;47.34;115900.28;6248726;23;20009;-83
2023/07/20 06:42:17;;;;;;;12.60;4.47;;;;;;;-142.57;48.35;115900.28;6222335;23;20036;-83
2023/07/20 06:44:46;;;;;;;14.63;4.85;;;;;;;-142.57;46.33;115900.28;6248089;23;20018;-82
2023/07/20 06:47:12;;;;;;;13.43;4.32;;;;;;;-142.57;46.75;115900.28;6195750;23;20090;-83
2023/07/20 06:49:37;;;;;;;17.23;5.40;;;;;;;-142.57;47.14;115900.28;6221079;23;20016;-80
2023/07/20 06:52:03;;;;;;;18.30;4.38;;;;;;;-142.57;45.87;115900.28;6247680;23;20016;-85
2023/07/20 06:54:29;;;;;;;13.93;4.40;;;;;;;-142.57;43.86;115900.28;6221278;23;20011;-81
2023/07/20 06:56:54;;;;;;;14.32;4.63;;;;;;;-142.57;46.35;115900.28;6221058;23;20012;-82
2023/07/20 06:59:20;;;;;;;19.88;4.10;;;;;;;-142.57;44.32;115900.28;6249023;23;20008;-83
2023/07/20 07:01:46;;;;;;;9.30;4.32;;;;;;;-142.57;43.26;115900.28;6222664;23;20435;-87
2023/07/20 07:06:42;;;;;;;21.33;5.22;;;;;;;-142.57;44.77;115900.28;6223849;23;20017;-84
2023/07/20 07:09:10;;;;;;;18.75;5.10;;;;;;;-142.57;46.11;115900.28;6198283;23;20013;-84
2023/07/20 07:11:35;;;;;;;13.77;4.28;;;;;;;-142.57;44.47;115900.28;6222500;23;20454;-86
2023/07/20 07:14:01;;;;;;;14.05;4.78;;;;;;;-142.57;41.71;115900.28;6224724;23;20115;-85
2023/07/20 07:16:29;;;;;;;10.93;3.97;;;;;;;-142.57;39.65;115900.28;6197334;23;20013;-86
2023/07/20 07:18:55;;;;;;;34.38;6.65;;;;;;;-142.57;40.53;115900.28;6222542;23;20432;-83
2023/07/20 07:21:20;;;;;;;16.23;4.50;;;;;;;-142.57;41.35;115900.28;6198886;23;20044;-83
2023/07/20 07:23:47;;;;;;;16.35;4.70;;;;;;;-142.57;42.99;115900.28;6196798;23;20091;-88
2023/07/20 07:26:13;;;;;;;12.85;5.43;;;;;;;-142.57;42.87;115900.28;6218416;23;20487;-81
2023/07/20 07:28:38;;;;;;;14.15;4.75;;;;;;;-142.57;42.88;115900.28;6217370;23;20000;-79
2023/07/20 07:31:05;;;;;;;15.20;4.35;;;;;;;-142.57;40.22;115900.28;6217003;23;20019;-81
2023/07/20 07:33:31;;;;;;;14.85;4.85;;;;;;;-142.57;37.94;115900.28;6217561;23;20005;-85
2023/07/20 07:35:57;;;;;;;11.95;4.32;;;;;;;-142.57;40.03;115900.28;6220043;23;20009;-82
2023/07/20 07:38:23;;;;;;;15.63;4.22;;;;;;;-142.57;38.68;115900.28;6219805;23;20013;-83
2023/07/20 07:40:48;;;;;;;9.68;4.63;;;;;;;-142.57;38.36;115900.28;6193408;23;20112;-84
2023/07/20 07:43:14;;;;;;;16.73;5.03;;;;;;;-142.57;40.24;115900.28;6192928;23;20383;-82
2023/07/20 07:45:40;;;;;;;13.73;4.57;;;;;;;-142.57;41.50;115900.28;6219961;23;20019;-82
2023/07/20 07:48:07;;;;;;;15.15;5.10;;;;;;;-142.57;43.21;115900.28;6218382;23;20012;-80
2023/07/20 07:50:33;;;;;;;15.05;4.68;;;;;;;-142.57;41.46;115900.28;6191143;23;20070;-80
2023/07/20 07:52:59;;;;;;;16.02;4.95;;;;;;;-142.57;40.15;115900.28;6218708;23;20085;-81
2023/07/20 07:55:26;;;;;;;15.02;5.03;;;;;;;-142.57;38.73;115900.28;6193388;23;20089;-82
2023/07/20 07:57:53;;;;;;;12.05;4.30;;;;;;;-142.57;39.54;115900.28;6219279;23;20062;-82
2023/07/20 08:00:19;;;;;;;17.48;4.40;;;;;;;-142.57;38.98;115900.28;6218587;23;20378;-86
2023/07/20 08:02:47;;;;;;;17.90;4.55;;;;;;;-142.57;35.40;115900.28;6217526;23;20004;-81
2023/07/20 08:05:13;;;;;;;11.35;4.10;;;;;;;-142.57;35.25;115900.28;6217247;23;20439;-81
2023/07/20 08:07:39;;;;;;;22.00;4.50;;;;;;;-142.57;33.27;115900.28;6216586;23;20040;-82
2023/07/20 08:10:05;;;;;;;11.02;4.28;;;;;;;-142.57;33.50;115900.28;6193528;23;20012;-86
2023/07/20 08:12:32;;;;;;;9.80;4.00;;;;;;;-142.57;33.21;115900.28;6223683;23;20454;-84
2023/07/20 08:14:57;;;;;;;12.05;3.75;;;;;;;-142.57;34.63;115900.28;6223150;23;20012;-87
2023/07/20 08:17:23;;;;;;;8.40;3.50;;;;;;;-142.57;35.03;115900.28;6218784;23;20012;-79
2023/07/20 08:19:48;;;;;;;12.68;4.07;;;;;;;-142.57;34.14;115900.28;6219885;23;20011;-84
2023/07/20 08:22:14;;;;;;;11.95;4.05;;;;;;;-142.57;33.66;115900.28;6218822;23;20088;-84
2023/07/20 08:24:40;;;;;;;10.93;4.13;;;;;;;-142.57;35.29;115900.28;6218409;23;20012;-80
2023/07/20 08:27:06;;;;;;;8.77;3.47;;;;;;;-142.57;35.69;115900.28;6217891;23;20427;-83
2023/07/20 08:29:31;;;;;;;11.75;3.88;;;;;;;-142.57;34.06;115900.28;6217899;23;20030;-81
2023/07/20 08:31:57;;;;;;;12.65;4.13;;;;;;;-142.57;33.25;115900.28;6219386;23;20040;-81
2023/07/20 08:34:22;;;;;;;12.98;3.65;;;;;;;-142.57;33.78;115900.28;6226683;23;20008;-83
2023/07/20 08:36:48;;;;;;;8.23;3.47;;;;;;;-142.57;34.38;115900.28;6227579;23;20023;-84
2023/07/20 08:39:13;;;;;;;10.55;3.47;;;;;;;-142.57;33.57;115900.28;6218982;23;20019;-85
2023/07/20 08:41:42;;;;;;;13.65;3.40;;;;;;;-142.57;32.66;115900.28;6218348;23;20009;-85
2023/07/20 08:44:08;;;;;;;10.27;3.58;;;;;;;-142.57;33.59;115900.28;6218454;23;20009;-84
2023/07/20 08:46:35;;;;;;;6.93;3.42;;;;;;;-142.57;33.00;115900.28;6218736;23;20029;-85
2023/07/20 08:49:02;;;;;;;11.63;3.67;;;;;;;-142.57;32.85;115900.28;6191875;23;20013;-85
2023/07/20 08:51:31;;;;;;;14.35;3.50;;;;;;;-142.57;33.40;115900.28;6219505;23;20454;-86
2023/07/20 08:54:00;;;;;;;10.70;3.40;;;;;;;-142.57;33.05;115900.28;6219010;23;20396;-84
2023/07/20 08:56:26;;;;;;;11.18;3.35;;;;;;;-142.57;33.14;115900.28;6209641;23;20104;-82
2023/07/20 08:58:53;;;;;;;5.32;3.28;;;;;;;-142.57;33.28;115900.28;6218519;23;20000;-85
2023/07/20 09:01:19;;;;;;;13.55;3.55;;;;;;;-142.57;31.58;115900.28;6218967;23;20339;-81
2023/07/20 09:03:46;;;;;;;9.15;3.50;;;;;;;-142.57;31.83;115900.28;6191516;23;20008;-82
2023/07/20 09:06:16;;;;;;;13.43;3.80;;;;;;;-142.57;32.12;115900.28;6218685;23;20439;-82
2023/07/20 09:08:43;;;;;;;8.93;3.63;;;;;;;-142.57;32.51;115900.28;6218768;23;20450;-82
2023/07/20 09:11:13;;;;;;;11.85;3.88;;;;;;;-142.57;32.45;115900.28;6218335;23;20498;-81
2023/07/20 09:13:39;;;;;;;7.40;3.28;;;;;;;-142.57;32.41;115900.28;6220338;23;20067;-83
2023/07/20 09:16:04;;;;;;;9.43;3.80;;;;;;;-142.57;31.71;115900.28;6218650;23;20431;-83
2023/07/20 09:18:32;;;;;;;11.43;3.35;;;;;;;-142.57;30.84;115900.28;6212883;23;20013;-83
2023/07/20 09:21:01;;;;;;;9.10;3.15;;;;;;;-142.57;30.43;115900.28;6229132;23;20012;-79
2023/07/20 09:23:53;;;;;;;10.52;3.13;;;;;;;-142.57;30.69;115900.28;6229297;23;20011;-82
2023/07/20 09:26:28;;;;;;;11.32;3.50;;;;;;;-142.57;30.58;115900.28;6233449;23;20028;-83
2023/07/20 09:28:56;;;;;;;20.90;4.57;;;;;;;-142.57;31.27;115900.28;6211851;23;20008;-81
2023/07/20 09:31:22;;;;;;;13.68;3.92;;;;;;;-142.57;32.34;115900.28;6233039;23;20092;-82
2023/07/20 09:33:52;;;;;;;15.25;4.28;;;;;;;-142.57;32.15;115900.28;6222517;23;20013;-82
2023/07/20 09:36:21;;;;;;;10.95;3.83;;;;;;;-142.57;32.72;115900.28;6221720;23;20032;-85
2023/07/20 09:38:46;;;;;;;12.30;3.55;;;;;;;-142.57;32.99;115900.28;6191292;23;20084;-82
2023/07/20 09:41:17;;;;;;;8.90;3.08;;;;;;;-142.57;31.92;115900.28;6219541;23;20012;-85
2023/07/20 09:43:42;;;;;;;10.40;3.47;;;;;;;-142.57;31.48;115900.28;6195230;23;20018;-80
2023/07/20 09:46:08;;;;;;;8.00;3.47;;;;;;;-142.57;31.89;115900.28;6221374;23;20231;-82
2023/07/20 09:48:34;;;;;;;10.57;3.50;;;;;;;-142.57;31.27;115900.28;6219509;23;20013;-84
2023/07/20 09:50:59;;;;;;;8.10;3.25;;;;;;;-142.57;31.58;115900.28;6220463;23;20102;-83
2023/07/20 09:53:26;;;;;;;9.88;3.42;;;;;;;-142.57;31.51;115900.28;6219844;23;20004;-83
2023/07/20 09:55:53;;;;;;;10.75;3.83;;;;;;;-142.57;31.79;115900.28;6221258;23;20009;-82
2023/07/20 09:58:19;;;;;;;10.88;3.63;;;;;;;-142.57;31.34;115900.28;6218683;23;20425;-82
2023/07/20 10:00:50;;;;;;;13.00;3.30;;;;;;;-142.57;31.53;115900.28;6216954;23;20051;-83
2023/07/20 10:03:20;;;;;;;10.43;3.60;;;;;;;-142.57;31.98;115900.28;6218691;23;20005;-89
2023/07/20 10:06:20;;;;;;;10.32;3.55;;;;;;;-142.57;32.16;115900.28;6191463;23;20019;-83
2023/07/20 10:08:48;;;;;;;9.80;3.53;;;;;;;-142.57;32.02;115900.28;6191692;23;20013;-80
2023/07/20 10:11:15;;;;;;;12.43;3.88;;;;;;;-142.57;31.80;115900.28;6191557;23;20019;-82
2023/07/20 10:13:49;;;;;;;9.07;3.80;;;;;;;-142.57;31.79;115900.28;6217409;23;20048;-84
2023/07/20 10:16:31;;;;;;;9.27;3.75;;;;;;;-142.57;31.24;115900.28;6218041;23;20008;-83
2023/07/20 10:19:06;;;;;;;13.32;3.70;;;;;;;-142.57;31.32;115900.28;6218002;23;20015;-84
2023/07/20 10:21:42;;;;;;;9.18;3.58;;;;;;;-142.57;31.14;115900.28;6217580;23;20009;-84
2023/07/20 10:24:09;;;;;;;9.82;3.50;;;;;;;-142.57;31.29;115900.28;6218144;23;20012;-87
2023/07/20 10:26:38;;;;;;;8.05;3.22;;;;;;;-142.57;32.14;115900.28;6219091;23;20083;-86
2023/07/20 10:29:05;;;;;;;10.25;3.63;;;;;;;-142.57;31.40;115900.28;6221108;23;20009;-84
2023/07/20 10:31:31;;;;;;;8.65;3.78;;;;;;;-142.57;32.00;115900.28;6218979;23;20078;-85
2023/07/20 10:33:57;;;;;;;11.95;3.40;;;;;;;-142.57;31.53;115900.28;6219590;23;20093;-83
2023/07/20 10:36:27;;;;;;;7.22;3.28;;;;;;;-142.57;32.26;115900.28;6221495;23;20012;-87
2023/07/20 10:38:57;;;;;;;9.00;3.72;;;;;;;-142.57;32.52;115900.28;6196928;23;20039;-86
2023/07/20 10:41:32;;;;;;;9.23;3.28;;;;;;;-142.57;31.74;115900.28;6243619;23;20024;-87
2023/07/20 10:44:08;;;;;;;12.07;3.85;;;;;;;-142.57;31.36;115900.28;6218371;23;20004;-88
2023/07/20 10:46:35;;;;;;;13.15;3.75;;;;;;;-142.57;32.64;115900.28;6242855;23;20000;-87
2023/07/20 10:49:02;;;;;;;10.27;3.70;;;;;;;-142.57;32.84;115900.28;6218382;23;20015;-87
2023/07/20 10:51:28;;;;;;;14.05;3.65;;;;;;;-142.57;32.64;115900.28;6244450;23;20028;-87
2023/07/20 10:53:58;;;;;;;14.32;3.88;;;;;;;-142.57;33.08;115900.28;6218293;23;20012;-86
2023/07/20 11:00:13;;;;;;;13.27;4.30;;;;;;;-142.57;32.95;115900.28;6222137;23;20347;-84
2023/07/20 11:02:52;;;;;;;12.70;4.03;;;;;;;-142.57;33.04;115900.28;6221615;23;20043;-88
2023/07/20 11:05:42;;;;;;;16.67;4.47;;;;;;;-142.57;33.08;115900.28;6223976;23;20005;-89
2023/07/20 11:08:12;;;;;;;9.20;4.20;;;;;;;-142.57;33.83;115900.28;6222958;23;20020;-87
2023/07/20 11:10:38;;;;;;;18.88;4.57;;;;;;;-142.57;34.38;115900.28;6223520;23;20341;-88
2023/07/20 11:13:26;;;;;;;13.85;4.70;;;;;;;-142.57;34.83;115900.28;6234123;23;20015;-86
2023/07/20 11:15:58;;;;;;;18.85;4.43;;;;;;;-142.57;34.83;115900.28;6224581;23;20008;-88
2023/07/20 11:18:26;;;;;;;;;;;;;;;-142.57;34.19;115900.28;6221249;23;20013;-84
2023/07/20 11:20:53;;;;;;;11.10;4.45;;;;;;;-142.57;34.11;115900.28;6221281;23;19915;-87
2023/07/20 11:23:22;;;;;;;14.32;3.85;;;;;;;-142.57;34.76;115900.28;6219510;23;20055;-84